createdAt,value
2023-02-27T00:01:21.163Z,12.75
2023-02-27T00:03:48.374Z,11.77
2023-02-27T00:06:17.956Z,12.35
2023-02-27T00:08:45.211Z,9.32
2023-02-27T00:11:12.358Z,10.05
2023-02-27T00:13:40.229Z,10.27
2023-02-27T00:16:08.438Z,10.15
2023-02-27T00:18:35.806Z,9.60
2023-02-27T00:21:03.111Z,9.02
2023-02-27T00:23:30.165Z,8.80
2023-02-27T00:25:57.243Z,8.13
2023-02-27T00:28:24.341Z,8.95
2023-02-27T00:30:51.463Z,10.13
2023-02-27T00:33:18.605Z,9.48
2023-02-27T00:35:45.599Z,8.80
2023-02-27T00:38:12.606Z,9.20
2023-02-27T00:40:39.809Z,9.13
2023-02-27T00:43:06.882Z,8.13
2023-02-27T00:45:33.977Z,8.98
2023-02-27T00:48:01.064Z,9.52
2023-02-27T00:50:28.204Z,8.25
2023-02-27T00:52:55.289Z,8.60
2023-02-27T00:55:22.392Z,8.40
2023-02-27T00:57:49.459Z,7.75
2023-02-27T01:00:16.804Z,8.13
2023-02-27T01:02:43.816Z,7.45
2023-02-27T01:05:11.211Z,7.80
2023-02-27T01:07:38.856Z,7.65
2023-02-27T01:10:07.633Z,7.97
2023-02-27T01:12:34.794Z,7.95
2023-02-27T01:15:02.227Z,8.45
2023-02-27T01:17:29.301Z,7.95
2023-02-27T01:19:56.390Z,8.30
2023-02-27T01:22:23.385Z,7.55
2023-02-27T01:24:50.447Z,6.88
2023-02-27T01:27:17.629Z,6.70
2023-02-27T01:29:44.975Z,6.78
2023-02-27T01:32:12.138Z,7.35
2023-02-27T01:34:39.147Z,7.38
2023-02-27T01:37:06.201Z,6.90
2023-02-27T01:39:33.279Z,7.22
2023-02-27T01:42:01.206Z,7.50
2023-02-27T01:44:30.311Z,8.48
2023-02-27T01:46:57.792Z,8.18
2023-02-27T01:49:29.856Z,15.45
2023-02-27T01:52:06.411Z,20.00
2023-02-27T01:54:37.950Z,19.95
2023-02-27T01:57:06.941Z,19.38
2023-02-27T01:59:36.297Z,17.60
2023-02-27T02:02:09.735Z,18.00
2023-02-27T02:04:39.530Z,18.35
2023-02-27T02:07:08.892Z,16.02
2023-02-27T02:09:44.838Z,15.85
2023-02-27T02:12:16.192Z,16.45
2023-02-27T02:14:43.333Z,16.45
2023-02-27T02:17:13.547Z,13.82
2023-02-27T02:20:12.560Z,13.85
2023-02-27T02:23:03.067Z,11.43
2023-02-27T02:25:56.378Z,10.63
2023-02-27T02:28:42.328Z,10.30
2023-02-27T02:31:51.194Z,8.60
2023-02-27T02:35:05.331Z,8.13
2023-02-27T02:37:53.374Z,7.45
2023-02-27T02:40:58.912Z,6.97
2023-02-27T02:44:04.772Z,6.72
2023-02-27T02:47:13.981Z,6.90
2023-02-27T02:50:01.235Z,6.78
2023-02-27T02:52:59.102Z,6.72
2023-02-27T02:56:04.977Z,8.68
2023-02-27T02:58:38.182Z,7.93
2023-02-27T03:01:36.673Z,9.27
2023-02-27T03:04:15.158Z,8.93
2023-02-27T03:06:48.167Z,8.05
2023-02-27T03:09:29.150Z,7.88
2023-02-27T03:11:59.246Z,7.63
2023-02-27T03:14:54.846Z,9.05
2023-02-27T03:17:38.984Z,9.48
2023-02-27T03:20:14.465Z,14.98
2023-02-27T03:22:47.583Z,15.77
2023-02-27T03:25:15.934Z,19.90
2023-02-27T03:27:50.611Z,17.15
2023-02-27T03:30:43.268Z,16.02
2023-02-27T03:33:23.249Z,18.00
2023-02-27T03:36:10.420Z,16.52
2023-02-27T03:38:52.143Z,16.65
2023-02-27T03:41:36.718Z,17.98
2023-02-27T03:44:23.373Z,15.38
2023-02-27T03:46:50.591Z,14.07
2023-02-27T03:49:18.239Z,13.27
2023-02-27T03:51:45.621Z,13.25
2023-02-27T03:54:20.568Z,17.13
2023-02-27T03:56:52.098Z,16.67
2023-02-27T03:59:19.519Z,15.60
2023-02-27T04:01:46.934Z,17.27
2023-02-27T04:04:16.821Z,13.15
2023-02-27T04:07:15.332Z,15.55
2023-02-27T04:10:08.610Z,15.38
2023-02-27T04:12:48.594Z,14.85
2023-02-27T04:15:27.585Z,9.75
2023-02-27T04:18:12.493Z,11.05
2023-02-27T04:20:48.877Z,10.07
2023-02-27T04:23:28.852Z,9.07
2023-02-27T04:26:10.964Z,8.73
2023-02-27T04:29:04.763Z,8.75
2023-02-27T04:31:52.875Z,8.57
2023-02-27T04:34:31.414Z,7.57
2023-02-27T04:37:23.011Z,7.07
2023-02-27T04:39:53.538Z,7.80
2023-02-27T04:42:32.548Z,7.07
2023-02-27T04:45:04.444Z,7.00
2023-02-27T04:47:41.159Z,7.45
2023-02-27T04:50:13.794Z,6.95
2023-02-27T04:52:55.308Z,6.55
2023-02-27T04:55:33.161Z,6.18
2023-02-27T04:58:09.636Z,6.50
2023-02-27T05:00:40.061Z,7.82
2023-02-27T05:03:22.284Z,6.50
2023-02-27T05:05:53.251Z,7.20
2023-02-27T05:09:06.630Z,7.68
2023-02-27T05:11:44.780Z,8.27
2023-02-27T05:14:27.055Z,7.97
2023-02-27T05:17:00.893Z,7.80
2023-02-27T05:19:28.122Z,8.07
2023-02-27T05:22:04.082Z,8.85
2023-02-27T05:24:47.123Z,9.73
2023-02-27T05:27:22.710Z,8.00
2023-02-27T05:29:58.324Z,6.13
2023-02-27T05:32:40.376Z,7.40
2023-02-27T05:35:16.301Z,6.97
2023-02-27T05:38:12.820Z,6.20
2023-02-27T05:40:58.193Z,7.43
2023-02-27T05:43:43.319Z,6.72
2023-02-27T05:46:33.707Z,7.18
2023-02-27T05:49:11.380Z,7.22
2023-02-27T05:51:40.877Z,7.15
2023-02-27T05:54:22.903Z,6.40
2023-02-27T05:56:53.652Z,7.00
2023-02-27T05:59:32.584Z,6.80
2023-02-27T06:01:59.904Z,7.35
2023-02-27T06:04:27.211Z,7.60
2023-02-27T06:06:54.545Z,6.60
2023-02-27T06:09:22.306Z,6.90
2023-02-27T06:11:49.310Z,7.32
2023-02-27T06:14:16.326Z,7.07
2023-02-27T06:16:43.452Z,6.88
2023-02-27T06:19:10.552Z,7.72
2023-02-27T06:21:37.615Z,8.25
2023-02-27T06:24:04.678Z,8.10
2023-02-27T06:26:31.719Z,8.10
2023-02-27T06:28:59.802Z,7.70
2023-02-27T06:31:26.885Z,8.90
2023-02-27T06:33:55.829Z,7.38
2023-02-27T06:36:23.306Z,7.70
2023-02-27T06:38:50.556Z,8.10
2023-02-27T06:41:17.648Z,12.07
2023-02-27T06:43:44.802Z,12.52
2023-02-27T06:46:11.942Z,13.07
2023-02-27T06:48:38.978Z,13.55
2023-02-27T06:51:06.261Z,12.57
2023-02-27T06:53:33.749Z,13.90
2023-02-27T06:56:00.936Z,14.85
2023-02-27T06:58:28.028Z,13.07
2023-02-27T07:00:55.218Z,11.15
2023-02-27T07:03:22.313Z,12.80
2023-02-27T07:05:49.414Z,10.10
2023-02-27T07:08:17.681Z,11.38
2023-02-27T07:10:47.313Z,14.73
2023-02-27T07:13:17.308Z,12.43
2023-02-27T07:15:45.567Z,9.88
2023-02-27T07:18:12.776Z,13.13
2023-02-27T07:20:40.445Z,10.98
2023-02-27T07:23:07.653Z,9.27
2023-02-27T07:25:34.737Z,8.82
2023-02-27T07:28:01.987Z,10.77
2023-02-27T07:30:31.070Z,12.40
2023-02-27T07:32:58.410Z,14.40
2023-02-27T07:35:25.541Z,13.13
2023-02-27T07:37:52.915Z,14.63
2023-02-27T07:40:20.169Z,14.48
2023-02-27T07:42:52.991Z,15.13
2023-02-27T07:45:20.564Z,14.45
2023-02-27T07:47:47.648Z,17.23
2023-02-27T07:50:15.120Z,15.05
2023-02-27T07:52:43.135Z,15.38
2023-02-27T07:55:12.003Z,15.18
2023-02-27T07:57:39.102Z,15.77
2023-02-27T08:00:07.394Z,14.95
2023-02-27T08:02:34.485Z,13.77
2023-02-27T08:05:01.518Z,11.95
2023-02-27T08:07:28.621Z,12.88
2023-02-27T08:09:55.664Z,13.05
2023-02-27T08:12:22.772Z,12.52
2023-02-27T08:14:49.916Z,11.68
2023-02-27T08:17:17.149Z,12.05
2023-02-27T08:19:44.197Z,12.68
2023-02-27T08:22:12.573Z,11.85
2023-02-27T08:24:40.659Z,13.15
2023-02-27T08:27:08.064Z,12.63
2023-02-27T08:29:35.352Z,13.15
2023-02-27T08:32:02.902Z,14.40
2023-02-27T08:34:30.588Z,12.98
2023-02-27T08:36:57.713Z,19.15
2023-02-27T08:39:24.757Z,13.75
2023-02-27T08:41:55.520Z,17.23
2023-02-27T08:44:22.579Z,15.65
2023-02-27T08:46:49.788Z,16.38
2023-02-27T08:49:18.203Z,12.40
2023-02-27T08:51:46.125Z,11.93
2023-02-27T08:54:13.297Z,11.57
2023-02-27T08:56:40.425Z,9.25
2023-02-27T08:59:07.576Z,9.70
2023-02-27T09:01:34.807Z,14.05
2023-02-27T09:04:03.524Z,13.80
2023-02-27T09:06:32.173Z,12.20
2023-02-27T09:09:00.127Z,10.90
2023-02-27T09:11:28.675Z,10.45
2023-02-27T09:13:56.232Z,12.98
2023-02-27T09:16:24.060Z,20.45
2023-02-27T09:18:51.737Z,15.82
2023-02-27T09:21:19.103Z,16.42
2023-02-27T09:23:46.163Z,16.17
2023-02-27T09:26:13.367Z,15.10
2023-02-27T09:28:40.573Z,13.30
2023-02-27T09:31:08.960Z,10.68
2023-02-27T09:33:37.487Z,12.98
2023-02-27T09:36:06.314Z,12.50
2023-02-27T09:38:35.304Z,12.80
2023-02-27T09:41:03.832Z,15.13
2023-02-27T09:43:43.407Z,18.25
2023-02-27T09:46:18.106Z,15.88
2023-02-27T09:49:00.557Z,15.57
2023-02-27T09:51:29.116Z,16.02
2023-02-27T09:54:01.456Z,11.30
2023-02-27T09:56:54.718Z,10.20
2023-02-27T09:59:36.305Z,10.60
2023-02-27T10:02:27.945Z,9.77
2023-02-27T10:05:09.934Z,11.82
2023-02-27T10:08:01.142Z,10.63
2023-02-27T10:10:43.548Z,10.73
2023-02-27T10:13:48.413Z,10.55
2023-02-27T10:16:19.543Z,9.07
2023-02-27T10:19:06.311Z,9.10
2023-02-27T10:21:41.252Z,9.68
2023-02-27T10:24:17.388Z,10.23
2023-02-27T10:26:46.181Z,8.85
2023-02-27T10:29:28.380Z,11.52
2023-02-27T10:32:04.039Z,10.32
2023-02-27T10:34:33.211Z,9.65
2023-02-27T10:37:05.466Z,9.98
2023-02-27T10:39:49.268Z,11.05
2023-02-27T10:42:17.726Z,9.45
2023-02-27T10:44:45.055Z,9.25
2023-02-27T10:47:16.313Z,9.63
2023-02-27T10:49:44.250Z,9.77
2023-02-27T10:52:13.912Z,9.35
2023-02-27T10:54:42.508Z,9.40
2023-02-27T10:57:28.027Z,9.77
2023-02-27T11:00:00.956Z,9.43
2023-02-27T11:02:50.455Z,9.05
2023-02-27T11:05:30.054Z,9.75
2023-02-27T11:08:11.074Z,10.95
2023-02-27T11:10:48.040Z,9.75
2023-02-27T11:13:23.206Z,9.95
2023-02-27T11:16:05.473Z,9.20
2023-02-27T11:18:32.919Z,10.05
2023-02-27T11:21:23.244Z,10.25
2023-02-27T11:23:57.831Z,10.60
2023-02-27T11:26:34.766Z,9.63
2023-02-27T11:29:18.467Z,9.85
2023-02-27T11:31:59.266Z,9.82
2023-02-27T11:34:40.983Z,9.93
2023-02-27T11:37:32.520Z,10.52
2023-02-27T11:40:11.074Z,10.77
2023-02-27T11:42:48.057Z,10.68
2023-02-27T11:46:16.232Z,10.63
2023-02-27T11:48:25.817Z,11.02
2023-02-27T11:51:04.989Z,11.27
2023-02-27T11:53:37.565Z,12.68
2023-02-27T11:56:08.964Z,13.32
2023-02-27T11:58:44.358Z,13.70
2023-02-27T12:01:23.556Z,13.25
2023-02-27T12:04:12.135Z,12.32
2023-02-27T12:06:47.104Z,12.82
2023-02-27T12:09:34.435Z,12.23
2023-02-27T12:12:06.301Z,12.70
2023-02-27T12:14:56.687Z,12.02
2023-02-27T12:17:47.771Z,12.30
2023-02-27T12:20:22.137Z,12.35
2023-02-27T12:22:53.110Z,13.43
2023-02-27T12:25:22.967Z,13.40
2023-02-27T12:28:00.525Z,13.32
2023-02-27T12:30:39.114Z,14.77
2023-02-27T12:33:11.895Z,14.40
2023-02-27T12:35:43.195Z,17.17
2023-02-27T12:38:15.504Z,16.77
2023-02-27T12:41:04.259Z,16.33
2023-02-27T12:43:38.166Z,14.07
2023-02-27T12:46:05.345Z,14.82
2023-02-27T12:48:35.212Z,15.23
2023-02-27T12:51:40.801Z,15.57
2023-02-27T12:54:15.668Z,16.20
2023-02-27T12:56:42.689Z,15.75
2023-02-27T12:59:27.565Z,14.98
2023-02-27T13:02:26.885Z,15.70
2023-02-27T13:05:11.983Z,16.27
2023-02-27T13:08:14.978Z,15.98
2023-02-27T13:11:19.570Z,16.95
2023-02-27T13:13:57.177Z,17.10
2023-02-27T13:16:33.791Z,18.40
2023-02-27T13:19:17.609Z,18.42
2023-02-27T13:21:55.744Z,16.92
2023-02-27T13:24:31.044Z,16.92
2023-02-27T13:27:21.001Z,16.27
2023-02-27T13:29:57.457Z,16.52
2023-02-27T13:32:43.981Z,15.52
2023-02-27T13:35:43.833Z,16.98
2023-02-27T13:38:33.917Z,16.00
2023-02-27T13:41:28.959Z,16.98
2023-02-27T13:44:20.174Z,16.52
2023-02-27T13:46:47.725Z,17.17
2023-02-27T13:49:28.862Z,17.15
2023-02-27T13:51:59.913Z,18.40
2023-02-27T13:54:39.344Z,18.55
2023-02-27T13:57:17.227Z,16.67
2023-02-27T13:59:53.284Z,18.50
2023-02-27T14:02:31.247Z,18.15
2023-02-27T14:05:03.245Z,18.95
2023-02-27T14:07:34.445Z,18.58
2023-02-27T14:10:11.859Z,18.55
2023-02-27T14:12:45.682Z,19.83
2023-02-27T14:15:22.580Z,20.67
2023-02-27T14:18:12.670Z,20.80
2023-02-27T14:20:43.063Z,20.17
2023-02-27T14:23:16.065Z,20.08
2023-02-27T14:26:02.608Z,19.67
2023-02-27T14:28:50.931Z,20.75
2023-02-27T14:31:32.602Z,23.08
2023-02-27T14:34:06.118Z,22.67
